createdAt,value
2018-06-22T00:00:21.843Z,16.23
2018-06-22T00:02:53.544Z,16.33
2018-06-22T00:05:24.904Z,18.47
2018-06-22T00:07:56.093Z,18.80
2018-06-22T00:10:27.714Z,18.40
2018-06-22T00:12:59.099Z,17.00
2018-06-22T00:15:30.406Z,17.03
2018-06-22T00:18:01.604Z,16.20
2018-06-22T00:20:32.550Z,17.57
2018-06-22T00:23:03.779Z,17.80
2018-06-22T00:25:34.981Z,16.70
2018-06-22T00:28:06.379Z,17.33
2018-06-22T00:30:37.605Z,20.20
2018-06-22T00:33:09.238Z,17.47
2018-06-22T00:35:40.524Z,18.90
2018-06-22T00:38:11.940Z,18.30
2018-06-22T00:40:43.081Z,18.47
2018-06-22T00:43:14.057Z,20.20
2018-06-22T00:45:45.577Z,21.13
2018-06-22T00:48:16.860Z,19.47
2018-06-22T00:50:47.860Z,20.00
2018-06-22T00:53:35.119Z,21.43
2018-06-22T00:56:06.228Z,19.50
2018-06-22T00:58:38.045Z,20.77
2018-06-22T01:01:09.647Z,19.57
2018-06-22T01:03:40.932Z,21.87
2018-06-22T01:06:12.094Z,24.00
2018-06-22T01:08:43.179Z,22.70
2018-06-22T01:11:14.794Z,24.57
2018-06-22T01:13:45.859Z,23.33
2018-06-22T01:16:16.861Z,23.00
2018-06-22T01:18:48.265Z,23.00
2018-06-22T01:21:19.456Z,21.60
2018-06-22T01:23:50.616Z,22.63
2018-06-22T01:26:21.642Z,23.70
2018-06-22T01:28:56.911Z,23.93
2018-06-22T01:31:28.229Z,23.67
2018-06-22T01:33:59.596Z,25.33
2018-06-22T01:36:30.944Z,28.03
2018-06-22T01:39:01.975Z,22.40
2018-06-22T01:41:33.316Z,23.00
2018-06-22T01:44:04.420Z,23.83
2018-06-22T01:46:36.372Z,24.27
2018-06-22T01:49:07.695Z,22.33
2018-06-22T01:51:38.716Z,22.77
2018-06-22T01:54:09.885Z,23.17
2018-06-22T01:56:41.108Z,26.77
2018-06-22T01:59:12.476Z,24.00
2018-06-22T02:01:43.716Z,25.60
2018-06-22T02:04:15.830Z,21.90
2018-06-22T02:06:47.221Z,23.60
2018-06-22T02:09:18.600Z,30.67
2018-06-22T02:11:49.628Z,23.40
2018-06-22T02:14:20.803Z,27.30
2018-06-22T02:16:52.171Z,27.53
2018-06-22T02:19:23.168Z,25.90
2018-06-22T02:21:54.456Z,31.27
2018-06-22T02:24:25.558Z,24.60
2018-06-22T02:26:56.946Z,25.63
2018-06-22T02:29:29.592Z,25.80
2018-06-22T02:32:00.787Z,30.23
2018-06-22T02:34:32.989Z,26.07
2018-06-22T02:37:04.295Z,27.83
2018-06-22T02:39:35.786Z,27.53
2018-06-22T02:42:07.857Z,28.47
2018-06-22T02:44:39.012Z,28.50
2018-06-22T02:47:10.415Z,29.20
2018-06-22T02:49:42.082Z,29.83
2018-06-22T02:52:13.372Z,25.20
2018-06-22T02:54:44.393Z,27.87
2018-06-22T02:57:15.759Z,29.10
2018-06-22T02:59:47.172Z,28.23
2018-06-22T03:02:18.609Z,27.77
2018-06-22T03:04:49.915Z,29.47
2018-06-22T03:07:21.332Z,29.93
2018-06-22T03:09:52.693Z,30.17
2018-06-22T03:12:24.360Z,27.90
2018-06-22T03:14:55.701Z,28.90
2018-06-22T03:17:27.064Z,27.40
2018-06-22T03:19:58.584Z,27.67
2018-06-22T03:22:29.848Z,28.37
2018-06-22T03:25:01.018Z,26.20
2018-06-22T03:27:32.216Z,26.03
2018-06-22T03:30:03.616Z,28.87
2018-06-22T03:32:35.002Z,26.17
2018-06-22T03:35:05.791Z,25.67
2018-06-22T03:37:37.636Z,27.07
2018-06-22T03:40:09.056Z,29.93
2018-06-22T03:42:40.337Z,29.73
2018-06-22T03:45:11.538Z,29.30
2018-06-22T03:47:43.002Z,28.73
2018-06-22T03:50:14.350Z,27.80
2018-06-22T03:52:48.727Z,28.70
2018-06-22T03:55:20.058Z,28.70
2018-06-22T03:57:51.709Z,26.77
2018-06-22T04:00:22.872Z,28.30
2018-06-22T04:02:54.229Z,24.63
2018-06-22T04:05:25.612Z,26.87
2018-06-22T04:07:57.031Z,26.00
2018-06-22T04:10:28.193Z,27.77
2018-06-22T04:12:59.861Z,29.70
2018-06-22T04:15:31.425Z,26.87
2018-06-22T04:18:02.586Z,27.40
2018-06-22T04:20:33.717Z,24.50
2018-06-22T04:23:04.935Z,28.60
2018-06-22T04:25:36.104Z,25.60
2018-06-22T04:28:07.552Z,27.87
2018-06-22T04:30:38.857Z,25.70
2018-06-22T04:33:10.104Z,29.27
2018-06-22T04:35:41.433Z,27.13
2018-06-22T04:38:12.932Z,26.23
2018-06-22T04:40:44.529Z,25.17
2018-06-22T04:43:15.792Z,24.37
2018-06-22T04:45:47.038Z,24.57
2018-06-22T04:48:18.448Z,27.57
2018-06-22T04:50:49.984Z,26.60
2018-06-22T04:53:21.360Z,28.37
2018-06-22T04:55:52.660Z,25.20
2018-06-22T04:58:23.951Z,27.83
2018-06-22T05:00:54.946Z,22.90
2018-06-22T05:03:26.383Z,23.97
2018-06-22T05:05:57.728Z,27.53
2018-06-22T05:08:29.042Z,29.13
2018-06-22T05:11:00.296Z,24.87
2018-06-22T05:13:31.984Z,26.97
2018-06-22T05:16:03.148Z,25.17
2018-06-22T05:18:34.474Z,24.50
2018-06-22T05:21:05.797Z,25.60
2018-06-22T05:23:36.887Z,29.93
2018-06-22T05:26:08.124Z,25.03
2018-06-22T05:28:39.223Z,27.23
2018-06-22T05:31:10.416Z,26.67
2018-06-22T05:33:41.444Z,26.33
2018-06-22T05:36:12.603Z,24.63
2018-06-22T05:38:44.000Z,24.83
2018-06-22T05:41:15.801Z,25.83
2018-06-22T05:43:47.312Z,27.90
2018-06-22T05:46:19.076Z,29.87
2018-06-22T05:48:50.372Z,22.13
2018-06-22T05:51:21.725Z,24.43
2018-06-22T05:53:53.576Z,22.10
2018-06-22T05:56:24.922Z,22.07
2018-06-22T05:58:56.272Z,26.73
2018-06-22T06:01:27.457Z,22.50
2018-06-22T06:03:58.909Z,22.23
2018-06-22T06:06:30.234Z,22.07
2018-06-22T06:09:01.264Z,21.70
2018-06-22T06:11:32.683Z,21.13
2018-06-22T06:14:04.051Z,22.37
2018-06-22T06:16:35.432Z,21.23
2018-06-22T06:19:06.967Z,24.23
2018-06-22T06:21:38.018Z,19.40
2018-06-22T06:24:09.252Z,17.70
2018-06-22T06:26:40.359Z,16.17
2018-06-22T06:29:11.393Z,20.83
2018-06-22T06:31:43.021Z,17.90
2018-06-22T06:34:14.240Z,18.57
2018-06-22T06:36:45.367Z,16.50
2018-06-22T06:39:16.543Z,20.20
2018-06-22T06:41:47.947Z,19.37
2018-06-22T06:44:19.292Z,20.57
2018-06-22T06:46:50.965Z,18.10
2018-06-22T06:49:22.394Z,21.87
2018-06-22T06:51:53.859Z,19.17
2018-06-22T06:54:25.235Z,19.50
2018-06-22T06:56:56.443Z,16.67
2018-06-22T06:59:27.628Z,16.00
2018-06-22T07:01:58.997Z,18.53
2018-06-22T07:04:30.308Z,16.83
2018-06-22T07:07:01.430Z,17.30
2018-06-22T07:09:33.092Z,16.83
2018-06-22T07:12:04.387Z,17.30
2018-06-22T07:14:35.564Z,15.83
2018-06-22T07:17:06.812Z,17.40
2018-06-22T07:19:38.234Z,15.67
2018-06-22T07:22:09.833Z,17.27
2018-06-22T07:24:40.573Z,16.67
2018-06-22T07:27:11.918Z,16.13
2018-06-22T07:29:45.429Z,16.70
2018-06-22T07:32:16.499Z,15.87
2018-06-22T07:34:48.180Z,13.83
2018-06-22T07:37:19.712Z,16.20
2018-06-22T07:39:50.797Z,14.80
2018-06-22T07:42:22.045Z,15.97
2018-06-22T07:44:53.204Z,14.77
2018-06-22T07:47:24.871Z,15.23
2018-06-22T07:49:55.981Z,15.07
2018-06-22T07:52:27.365Z,16.63
2018-06-22T07:54:58.583Z,16.87
2018-06-22T07:57:30.167Z,24.27
2018-06-22T08:00:01.571Z,15.83
2018-06-22T08:02:33.686Z,15.83
2018-06-22T08:05:04.976Z,14.07
2018-06-22T08:07:36.217Z,15.10
2018-06-22T08:10:07.267Z,14.33
2018-06-22T08:12:38.468Z,20.87
2018-06-22T08:15:10.123Z,14.00
2018-06-22T08:17:41.300Z,18.30
2018-06-22T08:20:12.645Z,14.60
2018-06-22T08:22:43.813Z,16.77
2018-06-22T08:25:15.493Z,18.60
2018-06-22T08:27:46.801Z,17.80
2018-06-22T08:30:18.007Z,14.17
2018-06-22T08:32:49.201Z,24.30
2018-06-22T08:35:20.601Z,20.00
2018-06-22T08:37:52.046Z,16.03
2018-06-22T08:40:23.215Z,15.30
2018-06-22T08:42:54.353Z,14.73
2018-06-22T08:45:25.525Z,15.50
2018-06-22T08:47:57.201Z,16.33
2018-06-22T08:50:28.298Z,20.60
2018-06-22T08:52:59.703Z,13.40
2018-06-22T08:55:30.881Z,13.03
2018-06-22T08:58:02.287Z,18.00
2018-06-22T09:00:33.940Z,14.50
2018-06-22T09:03:05.074Z,14.47
2018-06-22T09:05:37.047Z,14.97
2018-06-22T09:08:09.289Z,13.77
2018-06-22T09:10:40.432Z,12.57
2018-06-22T09:13:11.597Z,12.60
2018-06-22T09:16:00.350Z,12.73
2018-06-22T09:18:31.468Z,14.23
2018-06-22T09:21:02.644Z,14.07
2018-06-22T09:23:33.901Z,14.57
2018-06-22T09:26:06.434Z,14.00
2018-06-22T09:28:37.623Z,13.73
2018-06-22T09:31:08.961Z,11.97
2018-06-22T09:33:40.034Z,10.93
2018-06-22T09:36:11.416Z,15.13
2018-06-22T09:38:42.770Z,16.63
2018-06-22T09:41:14.148Z,14.57
2018-06-22T09:43:45.526Z,18.57
2018-06-22T09:46:16.752Z,12.27
2018-06-22T09:48:48.200Z,15.80
2018-06-22T09:51:19.505Z,11.20
2018-06-22T09:53:50.898Z,11.90
2018-06-22T09:56:22.575Z,10.67
2018-06-22T09:58:53.712Z,10.00
2018-06-22T10:01:25.321Z,9.43
2018-06-22T10:03:56.624Z,13.37
2018-06-22T10:06:27.693Z,13.40
2018-06-22T10:08:58.809Z,13.80
2018-06-22T10:11:30.223Z,10.13
2018-06-22T10:14:01.574Z,11.30
2018-06-22T10:16:33.004Z,10.23
2018-06-22T10:19:04.862Z,8.20
2018-06-22T10:21:35.991Z,8.97
2018-06-22T10:24:07.393Z,9.27
2018-06-22T10:26:38.543Z,11.40
2018-06-22T10:29:09.792Z,7.87
2018-06-22T10:31:40.976Z,8.97
2018-06-22T10:34:12.102Z,7.90
2018-06-22T10:36:43.320Z,7.50
2018-06-22T10:39:14.770Z,7.30
2018-06-22T10:41:46.237Z,7.83
2018-06-22T10:44:17.474Z,6.40
2018-06-22T10:46:48.867Z,7.80
2018-06-22T10:49:20.542Z,7.10
2018-06-22T10:51:51.730Z,6.45
2018-06-22T10:54:23.301Z,5.78
2018-06-22T10:56:54.912Z,6.75
2018-06-22T10:59:25.646Z,7.37
2018-06-22T11:01:56.839Z,5.87
2018-06-22T11:04:28.028Z,6.00
2018-06-22T11:06:59.385Z,6.05
2018-06-22T11:09:30.762Z,9.33
2018-06-22T11:12:01.978Z,9.98
2018-06-22T11:14:33.624Z,5.03
2018-06-22T11:17:05.242Z,4.85
2018-06-22T11:19:36.832Z,8.85
2018-06-22T11:22:07.918Z,6.62
2018-06-22T11:24:39.333Z,9.15
2018-06-22T11:27:10.476Z,7.35
2018-06-22T11:29:41.860Z,5.75
2018-06-22T11:32:13.549Z,7.37
2018-06-22T11:34:44.670Z,4.72
2018-06-22T11:37:15.855Z,5.33
2018-06-22T11:39:47.025Z,5.65
2018-06-22T11:42:18.280Z,4.70
2018-06-22T11:44:49.413Z,5.00
2018-06-22T11:47:21.446Z,5.78
2018-06-22T11:49:52.822Z,6.60
2018-06-22T11:52:24.177Z,6.33
2018-06-22T11:54:55.532Z,4.78
2018-06-22T11:57:26.763Z,6.47
2018-06-22T11:59:58.131Z,10.30
2018-06-22T12:02:29.350Z,6.55
2018-06-22T12:05:00.505Z,5.83
2018-06-22T12:07:31.917Z,4.83
2018-06-22T12:10:03.356Z,5.30
2018-06-22T12:12:34.508Z,5.17
2018-06-22T12:15:05.814Z,5.08
2018-06-22T12:17:36.904Z,4.87
2018-06-22T12:20:08.099Z,4.20
2018-06-22T12:22:39.245Z,4.08
2018-06-22T12:25:10.621Z,6.78
2018-06-22T12:27:41.899Z,6.35
2018-06-22T12:30:13.485Z,6.83
2018-06-22T12:32:45.161Z,4.35
2018-06-22T12:35:16.185Z,4.12
2018-06-22T12:37:47.639Z,6.53
2018-06-22T12:40:18.797Z,5.62
2018-06-22T12:42:50.437Z,3.77
2018-06-22T12:45:21.751Z,5.03
2018-06-22T12:47:53.804Z,3.87
2018-06-22T12:50:25.885Z,4.28
2018-06-22T12:52:57.732Z,5.10
2018-06-22T12:55:28.865Z,5.15
2018-06-22T12:58:00.815Z,6.53
2018-06-22T13:00:32.078Z,7.37
2018-06-22T13:03:02.960Z,4.22
2018-06-22T13:05:33.999Z,4.10
2018-06-22T13:08:06.356Z,6.05
2018-06-22T13:10:38.348Z,6.17
2018-06-22T13:13:09.763Z,4.72
2018-06-22T13:15:40.958Z,4.62
2018-06-22T13:18:12.351Z,5.03
2018-06-22T13:20:43.501Z,9.35
2018-06-22T13:23:15.198Z,3.55
2018-06-22T13:25:46.768Z,5.87
2018-06-22T13:28:18.398Z,4.92
2018-06-22T13:30:49.674Z,5.17
2018-06-22T13:33:21.050Z,4.80
2018-06-22T13:35:52.501Z,4.75
2018-06-22T13:38:23.818Z,5.10
2018-06-22T13:40:55.475Z,3.50
2018-06-22T13:43:26.610Z,5.53
2018-06-22T13:45:57.973Z,3.00
2018-06-22T13:48:29.979Z,6.42
2018-06-22T13:51:01.709Z,5.12
2018-06-22T13:53:32.965Z,5.50
2018-06-22T13:56:04.175Z,7.28
2018-06-22T13:58:35.569Z,4.20
2018-06-22T14:01:06.769Z,5.50
2018-06-22T14:03:42.597Z,3.65
2018-06-22T14:06:18.590Z,6.95
2018-06-22T14:08:49.789Z,7.75
2018-06-22T14:11:21.119Z,3.35
2018-06-22T14:13:52.261Z,9.98
2018-06-22T14:16:23.478Z,2.52
2018-06-22T14:18:55.059Z,2.52
2018-06-22T14:21:26.486Z,4.17
2018-06-22T14:23:58.141Z,5.47
2018-06-22T14:26:29.281Z,4.85
2018-06-22T14:29:00.897Z,2.87
2018-06-22T14:31:32.471Z,4.03
2018-06-22T14:34:03.642Z,4.13
2018-06-22T14:36:34.784Z,2.50
2018-06-22T14:39:08.791Z,3.90
2018-06-22T14:41:40.389Z,5.17
2018-06-22T14:44:11.952Z,2.53
2018-06-22T14:46:43.357Z,3.90
2018-06-22T14:49:14.485Z,4.13
2018-06-22T14:51:45.688Z,4.03
2018-06-22T14:54:21.935Z,6.57
2018-06-22T14:56:58.061Z,6.47
2018-06-22T14:59:33.825Z,3.97
2018-06-22T15:02:10.844Z,6.93
2018-06-22T15:04:46.956Z,4.50
2018-06-22T15:07:22.952Z,3.60
2018-06-22T15:09:54.304Z,4.93
2018-06-22T15:12:25.663Z,2.80
2018-06-22T15:14:56.903Z,3.73
2018-06-22T15:17:28.205Z,3.80
2018-06-22T15:19:59.421Z,2.50
2018-06-22T15:22:30.461Z,4.43
2018-06-22T15:25:02.311Z,4.40
2018-06-22T15:27:33.881Z,4.20
2018-06-22T15:30:05.673Z,6.67
2018-06-22T15:32:37.802Z,8.23
2018-06-22T15:35:14.317Z,5.23
2018-06-22T15:37:50.267Z,7.10
2018-06-22T15:40:26.224Z,6.50
2018-06-22T15:43:02.221Z,6.87
2018-06-22T15:45:38.394Z,7.47
2018-06-22T15:48:14.749Z,3.53
2018-06-22T15:50:50.907Z,3.17
2018-06-22T15:53:26.929Z,5.53
2018-06-22T15:56:03.135Z,5.27
2018-06-22T15:58:34.343Z,4.73
2018-06-22T16:01:05.638Z,5.30
2018-06-22T16:03:41.959Z,3.90
2018-06-22T16:06:13.185Z,3.90
2018-06-22T16:08:44.354Z,2.60
2018-06-22T16:11:16.414Z,3.90
2018-06-22T16:13:52.583Z,5.07
2018-06-22T16:16:28.755Z,2.57
2018-06-22T16:19:04.996Z,4.03
2018-06-22T16:21:41.059Z,3.67
2018-06-22T16:24:17.277Z,4.40
2018-06-22T16:26:53.634Z,5.00
2018-06-22T16:29:25.049Z,3.33
2018-06-22T16:31:56.845Z,2.70
2018-06-22T16:34:27.448Z,4.50
2018-06-22T16:36:58.132Z,4.50
2018-06-22T16:39:29.809Z,3.27
2018-06-22T16:42:01.144Z,4.10
2018-06-22T16:44:32.520Z,2.57
2018-06-22T16:47:03.779Z,4.30
2018-06-22T16:49:34.911Z,4.43
2018-06-22T16:52:06.162Z,3.30
2018-06-22T16:54:40.670Z,4.27
2018-06-22T16:57:12.038Z,2.93
2018-06-22T16:59:43.388Z,3.93
2018-06-22T17:02:14.788Z,4.57
2018-06-22T17:04:46.440Z,3.87
2018-06-22T17:07:22.500Z,4.77
2018-06-22T17:09:58.644Z,2.50
2018-06-22T17:12:34.873Z,5.77
2018-06-22T17:15:11.196Z,6.37
2018-06-22T17:17:47.442Z,3.17
2018-06-22T17:20:18.458Z,5.53
2018-06-22T17:23:53.240Z,6.53
2018-06-22T17:26:24.745Z,5.97
2018-06-22T17:28:56.185Z,3.27
2018-06-22T17:31:27.389Z,2.83
2018-06-22T17:33:58.564Z,8.97
2018-06-22T17:36:30.169Z,3.07
2018-06-22T17:39:01.529Z,3.57
2018-06-22T17:41:32.739Z,2.30
2018-06-22T17:44:04.019Z,4.73
2018-06-22T17:46:35.120Z,3.20
2018-06-22T17:49:06.758Z,3.13
2018-06-22T17:51:37.345Z,2.90
2018-06-22T17:54:09.614Z,3.53
2018-06-22T17:56:40.884Z,4.63
2018-06-22T17:59:17.559Z,3.03
2018-06-22T18:01:53.554Z,5.30
2018-06-22T18:04:29.398Z,4.47
2018-06-22T18:07:05.627Z,5.37
2018-06-22T18:09:42.003Z,2.30
2018-06-22T18:12:18.582Z,5.90
2018-06-22T18:14:50.007Z,4.50
2018-06-22T18:17:22.614Z,3.67
2018-06-22T18:19:53.827Z,3.93
2018-06-22T18:22:26.066Z,5.73
2018-06-22T18:24:57.616Z,4.57
2018-06-22T18:27:29.043Z,3.20
2018-06-22T18:30:00.211Z,5.00
2018-06-22T18:32:32.091Z,3.50
2018-06-22T18:35:03.488Z,3.33
2018-06-22T18:37:35.013Z,3.50
2018-06-22T18:40:07.342Z,5.67
2018-06-22T18:42:38.927Z,2.83
2018-06-22T18:45:11.932Z,4.37
2018-06-22T18:47:43.317Z,4.87
2018-06-22T18:50:15.214Z,4.60
2018-06-22T18:52:51.278Z,3.60
2018-06-22T18:55:27.512Z,5.87
2018-06-22T18:58:03.488Z,2.63
2018-06-22T19:00:39.798Z,5.40
2018-06-22T19:03:16.170Z,5.20
2018-06-22T19:05:47.275Z,3.00
2018-06-22T19:08:18.514Z,4.50
2018-06-22T19:10:50.060Z,5.43
2018-06-22T19:13:21.458Z,4.93
2018-06-22T19:15:52.694Z,2.10
2018-06-22T19:18:24.014Z,3.70
2018-06-22T19:20:55.396Z,2.60
2018-06-22T19:23:27.265Z,4.87
2018-06-22T19:25:58.571Z,6.60
2018-06-22T19:28:29.964Z,3.97
2018-06-22T19:31:01.168Z,4.60
2018-06-22T19:33:33.368Z,4.30
2018-06-22T19:36:04.586Z,7.30
2018-06-22T19:38:35.880Z,3.53
2018-06-22T19:41:07.284Z,4.87
2018-06-22T19:43:43.541Z,3.10
2018-06-22T19:46:19.590Z,4.77
2018-06-22T19:48:55.808Z,3.37
2018-06-22T19:51:31.867Z,5.30
2018-06-22T19:54:08.289Z,3.67
2018-06-22T19:56:39.599Z,4.63
2018-06-22T19:59:11.263Z,4.07
2018-06-22T20:01:42.554Z,4.70
2018-06-22T20:04:13.941Z,3.87
2018-06-22T20:06:51.948Z,7.20
2018-06-22T20:09:22.731Z,2.83
2018-06-22T20:11:53.879Z,3.43
2018-06-22T20:14:26.304Z,5.27
2018-06-22T20:16:57.436Z,3.57
2018-06-22T20:19:29.051Z,3.03
2018-06-22T20:22:00.305Z,5.80
2018-06-22T20:24:36.150Z,3.53
2018-06-22T20:27:07.447Z,4.00
2018-06-22T20:29:39.103Z,4.33
2018-06-22T20:32:15.121Z,5.00
2018-06-22T20:34:52.095Z,6.03
2018-06-22T20:37:28.301Z,5.40
2018-06-22T20:40:04.792Z,3.90
2018-06-22T20:42:41.132Z,4.83
2018-06-22T20:45:17.112Z,6.07
2018-06-22T20:52:48.088Z,3.40
2018-06-22T20:55:19.449Z,3.67
2018-06-22T20:57:51.119Z,4.50
2018-06-22T21:00:22.329Z,5.03
2018-06-22T21:02:53.439Z,3.73
2018-06-22T21:05:24.987Z,4.73
2018-06-22T21:07:56.268Z,4.50
2018-06-22T21:10:27.617Z,4.60
2018-06-22T21:12:59.167Z,3.10
2018-06-22T21:15:30.375Z,3.10
2018-06-22T21:18:01.599Z,4.33
2018-06-22T21:20:32.754Z,2.17
2018-06-22T21:23:04.014Z,4.07
2018-06-22T21:25:35.360Z,4.77
2018-06-22T21:28:11.428Z,4.10
2018-06-22T21:30:47.952Z,3.87
2018-06-22T21:33:24.114Z,2.70
2018-06-22T21:36:00.214Z,2.23
2018-06-22T21:38:36.541Z,2.43
2018-06-22T21:41:07.352Z,3.83
2018-06-22T21:43:38.616Z,5.20
2018-06-22T21:46:09.708Z,5.00
2018-06-22T21:48:41.058Z,3.37
2018-06-22T21:51:12.660Z,3.63
2018-06-22T21:53:43.820Z,4.63
2018-06-22T21:56:15.221Z,2.87
2018-06-22T21:58:46.365Z,3.73
2018-06-22T22:01:17.582Z,4.87
2018-06-22T22:03:48.953Z,3.97
2018-06-22T22:06:20.195Z,4.57
2018-06-22T22:08:51.412Z,4.33
2018-06-22T22:11:22.892Z,2.77
2018-06-22T22:13:54.089Z,3.33
2018-06-22T22:16:25.085Z,3.67
2018-06-22T22:18:56.534Z,2.83
2018-06-22T22:21:27.717Z,1.57
2018-06-22T22:23:59.332Z,4.23
2018-06-22T22:26:30.653Z,2.43
2018-06-22T22:29:01.871Z,2.97
2018-06-22T22:31:33.306Z,2.77
2018-06-22T22:34:04.432Z,1.70
2018-06-22T22:36:35.705Z,3.13
2018-06-22T22:39:08.350Z,3.00
2018-06-22T22:41:39.739Z,4.63
2018-06-22T22:44:11.088Z,9.73
2018-06-22T22:46:42.387Z,3.67
2018-06-22T22:49:13.568Z,2.13
2018-06-22T22:51:45.039Z,4.10
2018-06-22T22:54:16.091Z,1.83
2018-06-22T22:56:47.339Z,2.80
2018-06-22T22:59:18.672Z,2.03
2018-06-22T23:01:50.064Z,2.70
2018-06-22T23:04:21.600Z,3.57
2018-06-22T23:06:52.678Z,3.10
2018-06-22T23:09:24.073Z,2.87
2018-06-22T23:11:55.315Z,4.47
2018-06-22T23:14:26.881Z,2.67
2018-06-22T23:16:58.501Z,2.63
2018-06-22T23:19:29.785Z,3.67
2018-06-22T23:22:01.453Z,3.07
2018-06-22T23:24:32.797Z,3.37
2018-06-22T23:27:03.973Z,4.03
2018-06-22T23:29:35.372Z,2.83
2018-06-22T23:32:06.742Z,3.20
2018-06-22T23:34:38.115Z,3.87
2018-06-22T23:37:09.811Z,3.07
2018-06-22T23:39:40.898Z,2.83
2018-06-22T23:42:12.292Z,3.37
2018-06-22T23:44:43.736Z,2.83
2018-06-22T23:47:15.053Z,2.30
2018-06-22T23:49:46.445Z,3.20
2018-06-22T23:52:17.872Z,2.60
2018-06-22T23:54:49.281Z,3.87
2018-06-22T23:57:20.593Z,4.70
2018-06-22T23:59:51.611Z,3.83
